createdAt,value
2018-02-04T00:01:57.003Z,9.60
2018-02-04T00:04:27.208Z,10.27
2018-02-04T00:06:57.301Z,9.68
2018-02-04T00:09:27.178Z,10.38
2018-02-04T00:11:57.386Z,9.40
2018-02-04T00:14:26.991Z,9.85
2018-02-04T00:16:57.360Z,10.93
2018-02-04T00:19:27.497Z,11.38
2018-02-04T00:21:56.910Z,9.35
2018-02-04T00:24:26.934Z,8.80
2018-02-04T00:26:57.009Z,11.85
2018-02-04T00:29:33.471Z,10.23
2018-02-04T00:32:06.160Z,10.82
2018-02-04T00:34:37.237Z,11.02
2018-02-04T00:37:07.876Z,10.68
2018-02-04T00:39:36.249Z,10.02
2018-02-04T00:42:06.248Z,9.68
2018-02-04T00:44:35.042Z,10.80
2018-02-04T00:47:03.535Z,10.35
2018-02-04T00:49:31.945Z,10.07
2018-02-04T00:52:01.838Z,9.75
2018-02-04T00:54:30.421Z,11.18
2018-02-04T00:56:59.272Z,10.90
2018-02-04T00:59:28.027Z,12.20
2018-02-04T01:01:57.697Z,11.20
2018-02-04T01:04:26.593Z,12.10
2018-02-04T01:06:55.343Z,11.07
2018-02-04T01:09:24.005Z,11.35
2018-02-04T01:11:53.367Z,10.80
2018-02-04T01:14:21.810Z,12.80
2018-02-04T01:16:50.528Z,12.77
2018-02-04T01:19:20.952Z,13.80
2018-02-04T01:21:49.556Z,13.57
2018-02-04T01:24:18.034Z,14.45
2018-02-04T01:26:46.925Z,12.25
2018-02-04T01:29:15.581Z,13.10
2018-02-04T01:31:44.968Z,13.20
2018-02-04T01:34:13.580Z,13.55
2018-02-04T01:36:42.291Z,13.52
2018-02-04T01:39:10.653Z,12.75
2018-02-04T01:41:39.129Z,14.77
2018-02-04T01:44:07.703Z,13.38
2018-02-04T01:46:36.569Z,12.98
2018-02-04T01:49:05.034Z,13.18
2018-02-04T01:51:36.230Z,12.95
2018-02-04T01:54:07.637Z,28.20
2018-02-04T01:56:37.998Z,14.77
2018-02-04T01:59:08.955Z,13.55
2018-02-04T02:01:38.775Z,13.93
2018-02-04T02:04:08.049Z,13.02
2018-02-04T02:06:37.347Z,14.63
2018-02-04T02:09:05.709Z,16.00
2018-02-04T02:11:34.141Z,17.58
2018-02-04T02:14:02.505Z,13.75
2018-02-04T02:16:31.641Z,13.43
2018-02-04T02:19:00.773Z,14.07
2018-02-04T02:21:29.457Z,13.23
2018-02-04T02:23:57.827Z,14.63
2018-02-04T02:26:26.194Z,15.25
2018-02-04T02:28:54.594Z,13.98
2018-02-04T02:31:22.965Z,16.30
2018-02-04T02:33:51.357Z,13.60
2018-02-04T02:36:20.163Z,14.30
2018-02-04T02:38:49.698Z,14.70
2018-02-04T02:41:18.844Z,14.65
2018-02-04T02:43:47.227Z,14.00
2018-02-04T02:46:15.624Z,12.18
2018-02-04T02:48:43.992Z,15.75
2018-02-04T02:51:12.381Z,16.55
2018-02-04T02:53:40.749Z,14.93
2018-02-04T02:56:09.404Z,13.20
2018-02-04T02:58:38.280Z,11.98
2018-02-04T03:01:06.668Z,13.07
2018-02-04T03:03:35.058Z,13.05
2018-02-04T03:06:03.434Z,13.85
2018-02-04T03:08:31.831Z,14.02
2018-02-04T03:11:00.461Z,11.55
2018-02-04T03:13:29.662Z,12.05
2018-02-04T03:15:58.083Z,12.73
2018-02-04T03:18:26.565Z,13.57
2018-02-04T03:20:54.954Z,11.50
2018-02-04T03:23:24.553Z,12.43
2018-02-04T03:25:53.281Z,13.95
2018-02-04T03:28:22.411Z,12.93
2018-02-04T03:30:50.824Z,13.90
2018-02-04T03:33:19.192Z,11.75
2018-02-04T03:35:47.562Z,13.75
2018-02-04T03:38:15.960Z,13.05
2018-02-04T03:40:44.324Z,11.55
2018-02-04T03:43:12.739Z,12.93
2018-02-04T03:45:41.105Z,13.62
2018-02-04T03:48:09.526Z,11.65
2018-02-04T03:50:37.894Z,12.63
2018-02-04T03:53:07.036Z,13.70
2018-02-04T03:55:35.458Z,13.07
2018-02-04T03:58:03.822Z,14.60
2018-02-04T04:00:32.255Z,12.85
2018-02-04T04:03:00.634Z,13.18
2018-02-04T04:05:29.085Z,14.20
2018-02-04T04:07:58.213Z,14.57
2018-02-04T04:10:26.572Z,13.27
2018-02-04T04:12:54.953Z,12.63
2018-02-04T04:15:23.322Z,12.32
2018-02-04T04:17:51.709Z,13.00
2018-02-04T04:20:20.074Z,13.52
2018-02-04T04:22:49.254Z,13.50
2018-02-04T04:25:17.668Z,13.25
2018-02-04T04:27:46.046Z,15.05
2018-02-04T04:30:14.442Z,14.23
2018-02-04T04:32:42.801Z,14.82
2018-02-04T04:35:11.195Z,14.18
2018-02-04T04:37:39.557Z,13.68
2018-02-04T04:40:08.154Z,13.38
2018-02-04T04:42:36.537Z,14.93
2018-02-04T04:45:04.913Z,14.45
2018-02-04T04:47:33.301Z,14.07
2018-02-04T04:50:01.677Z,14.48
2018-02-04T04:52:30.097Z,14.02
2018-02-04T04:54:58.471Z,13.62
2018-02-04T04:57:26.866Z,13.90
2018-02-04T04:59:56.563Z,13.80
2018-02-04T05:02:25.472Z,13.13
2018-02-04T05:04:56.079Z,14.45
2018-02-04T05:07:25.686Z,14.73
2018-02-04T05:09:54.504Z,15.02
2018-02-04T05:12:24.155Z,15.35
2018-02-04T05:14:53.889Z,13.80
2018-02-04T05:17:22.875Z,13.27
2018-02-04T05:19:51.768Z,14.50
2018-02-04T05:22:20.190Z,15.40
2018-02-04T05:24:48.551Z,13.32
2018-02-04T05:27:17.701Z,14.70
2018-02-04T05:29:46.061Z,14.80
2018-02-04T05:32:14.495Z,14.63
2018-02-04T05:34:42.854Z,14.05
2018-02-04T05:37:11.218Z,14.00
2018-02-04T05:39:39.606Z,15.90
2018-02-04T05:42:07.974Z,14.85
2018-02-04T05:44:36.371Z,15.25
2018-02-04T05:47:04.729Z,15.43
2018-02-04T05:49:33.361Z,16.37
2018-02-04T05:52:02.480Z,14.40
2018-02-04T05:54:30.857Z,15.88
2018-02-04T05:56:59.261Z,16.60
2018-02-04T05:59:27.627Z,16.73
2018-02-04T06:01:56.019Z,14.80
2018-02-04T06:04:24.378Z,16.23
2018-02-04T06:06:53.077Z,15.93
2018-02-04T06:09:21.446Z,15.13
2018-02-04T06:11:49.813Z,15.93
2018-02-04T06:14:18.217Z,15.32
2018-02-04T06:16:46.577Z,18.02
2018-02-04T06:19:14.971Z,16.92
2018-02-04T06:21:43.349Z,16.02
2018-02-04T06:24:12.026Z,15.77
2018-02-04T06:26:40.394Z,15.95
2018-02-04T06:29:08.770Z,16.95
2018-02-04T06:31:37.153Z,17.90
2018-02-04T06:34:05.533Z,18.85
2018-02-04T06:36:33.921Z,17.42
2018-02-04T06:39:02.303Z,18.73
2018-02-04T06:41:31.077Z,17.10
2018-02-04T06:43:59.464Z,17.85
2018-02-04T06:46:27.831Z,17.55
2018-02-04T06:48:56.219Z,18.35
2018-02-04T06:51:24.593Z,18.40
2018-02-04T06:53:52.977Z,19.95
2018-02-04T06:56:21.341Z,19.58
2018-02-04T06:58:49.933Z,18.60
2018-02-04T07:01:18.309Z,20.98
2018-02-04T07:03:46.693Z,22.52
2018-02-04T07:06:15.070Z,18.58
2018-02-04T07:08:43.430Z,21.12
2018-02-04T07:11:11.851Z,20.65
2018-02-04T07:13:40.226Z,22.20
2018-02-04T07:16:08.645Z,20.90
2018-02-04T07:18:37.021Z,21.15
2018-02-04T07:21:05.418Z,21.77
2018-02-04T07:23:34.581Z,21.12
2018-02-04T07:26:02.941Z,21.45
2018-02-04T07:28:31.333Z,21.70
2018-02-04T07:30:59.698Z,19.98
2018-02-04T07:33:28.578Z,17.73
2018-02-04T07:35:56.946Z,19.98
2018-02-04T07:38:25.309Z,20.85
2018-02-04T07:40:53.700Z,19.45
2018-02-04T07:43:22.065Z,19.60
2018-02-04T07:45:50.454Z,18.12
2018-02-04T07:48:18.897Z,21.40
2018-02-04T07:50:48.242Z,17.50
2018-02-04T07:53:16.601Z,18.35
2018-02-04T07:55:44.977Z,17.62
2018-02-04T07:58:13.488Z,17.67
2018-02-04T08:00:41.853Z,17.30
2018-02-04T08:03:10.429Z,17.58
2018-02-04T08:05:38.788Z,16.85
2018-02-04T08:08:07.153Z,15.95
2018-02-04T08:10:36.339Z,14.77
2018-02-04T08:13:04.733Z,15.45
2018-02-04T08:15:33.885Z,15.60
2018-02-04T08:18:02.258Z,15.18
2018-02-04T08:20:30.821Z,13.98
2018-02-04T08:22:59.195Z,14.73
2018-02-04T08:25:27.557Z,14.13
2018-02-04T08:27:56.705Z,12.37
2018-02-04T08:30:25.066Z,13.65
2018-02-04T08:32:53.445Z,13.25
2018-02-04T08:35:21.813Z,15.68
2018-02-04T08:37:50.394Z,14.45
2018-02-04T08:40:18.819Z,14.68
2018-02-04T08:42:47.942Z,14.82
2018-02-04T08:45:17.226Z,14.98
2018-02-04T08:47:46.374Z,14.70
2018-02-04T08:50:14.762Z,13.00
2018-02-04T08:52:43.238Z,13.77
2018-02-04T08:55:11.821Z,14.98
2018-02-04T08:57:40.226Z,13.75
2018-02-04T09:00:08.590Z,12.63
2018-02-04T09:02:36.973Z,14.80
2018-02-04T09:05:05.356Z,13.73
2018-02-04T09:07:33.748Z,13.15
2018-02-04T09:10:02.193Z,13.57
2018-02-04T09:12:31.362Z,14.13
2018-02-04T09:14:59.730Z,14.40
2018-02-04T09:17:28.858Z,14.73
2018-02-04T09:19:57.261Z,15.00
2018-02-04T09:22:25.664Z,17.23
2018-02-04T09:24:54.066Z,16.10
2018-02-04T09:27:23.362Z,24.20
2018-02-04T09:29:52.715Z,17.67
2018-02-04T09:32:21.085Z,17.12
2018-02-04T09:34:49.542Z,17.87
2018-02-04T09:37:18.825Z,18.52
2018-02-04T09:40:03.057Z,19.55
2018-02-04T09:42:32.819Z,17.60
2018-02-04T09:45:01.246Z,18.25
2018-02-04T09:47:30.570Z,17.80
2018-02-04T09:49:58.961Z,20.05
2018-02-04T09:52:27.326Z,20.05
2018-02-04T09:54:55.822Z,19.15
2018-02-04T09:57:24.190Z,19.95
2018-02-04T09:59:52.817Z,23.08
2018-02-04T10:02:21.449Z,19.05
2018-02-04T10:04:50.166Z,19.73
2018-02-04T10:07:19.210Z,20.17
2018-02-04T10:09:48.374Z,20.70
2018-02-04T10:12:16.908Z,19.42
2018-02-04T10:14:46.039Z,18.70
2018-02-04T10:17:14.429Z,19.52
2018-02-04T10:19:42.903Z,20.10
2018-02-04T10:22:11.745Z,25.08
2018-02-04T10:24:40.889Z,17.80
2018-02-04T10:27:09.267Z,19.00
2018-02-04T10:29:37.665Z,15.65
2018-02-04T10:32:06.034Z,14.10
2018-02-04T10:34:34.414Z,11.57
2018-02-04T10:37:02.825Z,13.32
2018-02-04T10:39:32.273Z,11.75
2018-02-04T10:42:00.789Z,14.65
2018-02-04T10:44:29.196Z,19.75
2018-02-04T10:46:59.254Z,16.73
2018-02-04T10:49:27.730Z,20.45
2018-02-04T10:52:01.781Z,22.58
2018-02-04T10:54:30.144Z,17.98
2018-02-04T10:56:58.803Z,17.30
2018-02-04T10:59:27.183Z,19.98
2018-02-04T11:01:55.601Z,17.90
2018-02-04T11:04:24.246Z,18.25
2018-02-04T11:06:52.611Z,18.42
2018-02-04T11:09:21.085Z,18.05
2018-02-04T11:11:50.517Z,17.77
2018-02-04T11:14:19.090Z,15.95
2018-02-04T11:16:47.580Z,18.50
2018-02-04T11:19:16.164Z,16.77
2018-02-04T11:21:45.372Z,17.10
2018-02-04T11:24:13.740Z,17.83
2018-02-04T11:26:42.156Z,16.50
2018-02-04T11:29:11.830Z,15.48
2018-02-04T11:31:40.902Z,14.93
2018-02-04T11:34:09.297Z,15.82
2018-02-04T11:36:37.659Z,16.75
2018-02-04T11:39:06.061Z,15.60
2018-02-04T11:41:34.429Z,16.95
2018-02-04T11:44:03.393Z,16.65
2018-02-04T11:46:33.271Z,17.35
2018-02-04T11:49:01.678Z,17.00
2018-02-04T11:51:31.590Z,17.87
2018-02-04T11:53:59.996Z,18.52
2018-02-04T11:56:28.437Z,16.48
2018-02-04T11:58:56.820Z,19.30
2018-02-04T12:01:26.040Z,17.48
2018-02-04T12:03:54.654Z,39.85
2018-02-04T12:06:23.076Z,20.15
2018-02-04T12:08:52.243Z,18.33
2018-02-04T12:11:20.613Z,20.15
2018-02-04T12:13:49.062Z,17.52
2018-02-04T12:16:17.679Z,20.15
2018-02-04T12:18:46.249Z,17.83
2018-02-04T12:21:14.734Z,18.42
2018-02-04T12:23:45.294Z,19.55
2018-02-04T12:26:15.858Z,19.37
2018-02-04T12:28:44.751Z,20.30
2018-02-04T12:31:14.411Z,20.40
2018-02-04T12:33:44.596Z,16.98
2018-02-04T12:36:14.705Z,17.50
2018-02-04T12:38:44.320Z,21.40
2018-02-04T12:41:12.990Z,19.20
2018-02-04T12:43:41.678Z,21.62
2018-02-04T12:46:10.397Z,16.58
2018-02-04T12:48:38.869Z,22.08
2018-02-04T12:51:07.439Z,21.20
2018-02-04T12:53:35.886Z,19.35
2018-02-04T12:56:05.322Z,13.95
2018-02-04T12:58:33.764Z,14.20
2018-02-04T13:01:02.959Z,69.25
2018-02-04T13:03:32.159Z,17.23
2018-02-04T13:06:00.552Z,36.13
2018-02-04T13:08:29.794Z,69.30
2018-02-04T13:12:25.893Z,22.10
2018-02-04T13:14:54.296Z,14.40
2018-02-04T13:17:22.674Z,12.10
2018-02-04T13:19:51.191Z,12.90
2018-02-04T13:22:20.389Z,11.13
2018-02-04T13:24:49.370Z,11.53
2018-02-04T13:27:19.454Z,11.30
2018-02-04T13:29:47.830Z,11.70
2018-02-04T13:32:16.255Z,11.50
2018-02-04T13:34:44.673Z,18.73
2018-02-04T13:37:14.012Z,19.02
2018-02-04T13:39:42.449Z,13.57
2018-02-04T13:42:11.592Z,15.13
2018-02-04T13:44:40.191Z,16.50
2018-02-04T13:47:08.579Z,14.70
2018-02-04T13:49:37.077Z,13.75
2018-02-04T13:52:05.774Z,15.77
2018-02-04T13:54:34.410Z,13.13
2018-02-04T13:57:02.782Z,14.23
2018-02-04T13:59:31.153Z,22.70
2018-02-04T14:01:59.543Z,16.55
2018-02-04T14:04:28.201Z,14.77
2018-02-04T14:06:56.812Z,13.32
2018-02-04T14:09:25.173Z,11.43
2018-02-04T14:11:53.761Z,5.95
2018-02-04T14:14:22.123Z,8.45
2018-02-04T14:16:50.503Z,7.35
2018-02-04T14:19:19.277Z,6.35
2018-02-04T14:21:48.588Z,6.35
2018-02-04T14:24:17.064Z,7.68
2018-02-04T14:26:46.271Z,7.75
2018-02-04T14:29:15.412Z,9.40
2018-02-04T14:31:44.577Z,16.30
2018-02-04T14:34:14.219Z,11.45
2018-02-04T14:36:44.871Z,10.50
2018-02-04T14:39:14.417Z,10.48
2018-02-04T14:41:43.905Z,8.85
2018-02-04T14:44:13.465Z,9.35
2018-02-04T14:46:42.842Z,10.27
2018-02-04T14:49:11.657Z,9.00
2018-02-04T14:51:40.885Z,7.35
2018-02-04T14:54:10.133Z,7.50
2018-02-04T14:56:41.024Z,7.75
2018-02-04T14:59:17.969Z,8.30
2018-02-04T15:01:53.990Z,7.47
2018-02-04T15:04:31.150Z,7.43
2018-02-04T15:07:04.621Z,6.87
2018-02-04T15:09:45.032Z,10.90
2018-02-04T15:12:20.159Z,10.18
2018-02-04T15:14:56.740Z,8.65
2018-02-04T15:17:32.208Z,8.93
2018-02-04T15:20:11.335Z,8.23
2018-02-04T15:22:59.647Z,8.65
2018-02-04T15:25:41.270Z,7.80
2018-02-04T15:28:30.089Z,7.75
2018-02-04T15:34:05.941Z,6.20
2018-02-04T15:36:43.698Z,5.50
2018-02-04T15:39:14.339Z,8.82
2018-02-04T15:41:51.168Z,5.18
2018-02-04T15:44:29.404Z,5.68
2018-02-04T15:47:05.761Z,6.20
2018-02-04T15:49:39.509Z,5.15
2018-02-04T15:52:11.188Z,6.90
2018-02-04T15:54:43.483Z,6.10
2018-02-04T15:57:20.463Z,6.07
2018-02-04T15:59:56.057Z,7.40
2018-02-04T16:02:30.143Z,5.62
2018-02-04T16:05:03.212Z,7.35
2018-02-04T16:07:34.616Z,8.00
2018-02-04T16:10:04.530Z,7.20
2018-02-04T16:12:38.650Z,7.30
2018-02-04T16:15:11.077Z,8.70
2018-02-04T16:17:43.277Z,6.93
2018-02-04T16:20:12.577Z,7.95
2018-02-04T16:22:45.403Z,7.68
2018-02-04T16:25:15.976Z,7.25
2018-02-04T16:27:51.405Z,7.57
2018-02-04T16:30:24.306Z,10.57
2018-02-04T16:33:08.547Z,12.70
2018-02-04T16:35:43.593Z,9.02
2018-02-04T16:38:12.665Z,13.02
2018-02-04T16:40:41.841Z,9.35
2018-02-04T16:43:10.206Z,10.20
2018-02-04T16:45:38.590Z,15.05
2018-02-04T16:48:07.357Z,9.82
2018-02-04T16:50:35.992Z,11.65
2018-02-04T16:53:04.357Z,14.23
2018-02-04T16:55:32.766Z,14.35
2018-02-04T16:58:01.133Z,15.27
2018-02-04T17:00:29.496Z,11.50
2018-02-04T17:02:57.886Z,15.15
2018-02-04T17:05:26.363Z,12.18
2018-02-04T17:07:54.782Z,12.85
2018-02-04T17:10:30.654Z,15.00
2018-02-04T17:13:07.037Z,11.88
2018-02-04T17:15:42.391Z,12.45
2018-02-04T17:18:18.491Z,13.38
2018-02-04T17:20:54.395Z,11.12
2018-02-04T17:23:31.231Z,12.05
2018-02-04T17:26:13.584Z,11.45
2018-02-04T17:28:53.867Z,13.20
2018-02-04T17:31:34.353Z,14.00
2018-02-04T17:34:17.584Z,13.38
2018-02-04T17:37:02.627Z,12.10
2018-02-04T17:39:31.768Z,12.85
2018-02-04T17:42:00.908Z,10.68
2018-02-04T17:44:29.395Z,12.57
2018-02-04T17:46:58.015Z,12.60
2018-02-04T17:49:27.175Z,10.00
2018-02-04T17:51:55.589Z,11.75
2018-02-04T17:54:23.973Z,13.75
2018-02-04T17:56:53.378Z,13.88
2018-02-04T17:59:21.861Z,16.75
2018-02-04T18:01:51.317Z,14.13
2018-02-04T18:04:19.810Z,15.05
2018-02-04T18:06:48.277Z,14.68
2018-02-04T18:09:16.692Z,13.57
2018-02-04T18:11:45.213Z,14.05
2018-02-04T18:14:13.949Z,15.25
2018-02-04T18:16:43.162Z,15.35
2018-02-04T18:19:11.607Z,16.92
2018-02-04T18:21:40.757Z,17.00
2018-02-04T18:24:09.868Z,17.15
2018-02-04T18:26:38.552Z,17.67
2018-02-04T18:29:07.272Z,20.08
2018-02-04T18:31:36.285Z,17.85
2018-02-04T18:34:04.794Z,16.80
2018-02-04T18:36:33.342Z,14.85
2018-02-04T18:39:01.829Z,17.05
2018-02-04T18:41:31.158Z,15.25
2018-02-04T18:44:00.384Z,13.13
2018-02-04T18:46:29.022Z,13.30
2018-02-04T18:48:58.364Z,14.80
2018-02-04T18:51:27.067Z,13.25
2018-02-04T18:53:56.026Z,14.82
2018-02-04T18:56:25.255Z,15.75
2018-02-04T18:58:54.617Z,16.70
2018-02-04T19:01:24.067Z,15.35
2018-02-04T19:03:55.465Z,16.50
2018-02-04T19:06:24.265Z,18.00
2018-02-04T19:08:52.747Z,17.98
2018-02-04T19:11:21.280Z,17.23
2018-02-04T19:13:50.019Z,15.07
2018-02-04T19:16:18.450Z,14.82
2018-02-04T19:18:47.785Z,16.50
2018-02-04T19:21:16.255Z,18.20
2018-02-04T19:23:45.943Z,18.35
2018-02-04T19:26:16.065Z,15.40
2018-02-04T19:28:44.474Z,15.48
2018-02-04T19:31:13.925Z,14.00
2018-02-04T19:33:47.642Z,15.02
2018-02-04T19:36:16.146Z,15.27
2018-02-04T19:38:45.612Z,13.68
2018-02-04T19:41:16.316Z,12.88
2018-02-04T19:43:44.932Z,12.82
2018-02-04T19:46:14.190Z,12.10
2018-02-04T19:48:43.270Z,14.60
2018-02-04T19:51:14.105Z,12.32
2018-02-04T19:53:43.504Z,14.27
2018-02-04T19:56:12.638Z,12.95
2018-02-04T19:58:42.303Z,12.07
2018-02-04T20:01:12.679Z,15.55
2018-02-04T20:03:42.505Z,13.73
2018-02-04T20:06:13.000Z,12.85
2018-02-04T20:08:41.902Z,14.85
2018-02-04T20:11:11.800Z,14.27
2018-02-04T20:13:42.967Z,13.65
2018-02-04T20:16:12.260Z,15.98
2018-02-04T20:18:41.155Z,15.35
2018-02-04T20:21:09.663Z,26.23
2018-02-04T20:23:39.875Z,29.33
2018-02-04T20:26:09.611Z,16.02
2018-02-04T20:28:39.377Z,15.40
2018-02-04T20:31:08.492Z,16.83
2018-02-04T20:36:50.538Z,15.52
2018-02-04T20:39:19.367Z,14.50
2018-02-04T20:41:49.931Z,15.88
2018-02-04T20:44:18.643Z,15.60
2018-02-04T20:46:48.353Z,15.55
2018-02-04T20:49:17.884Z,16.12
2018-02-04T20:51:46.329Z,15.50
2018-02-04T20:54:15.243Z,18.27
2018-02-04T20:56:44.033Z,14.57
2018-02-04T20:59:14.207Z,16.40
2018-02-04T21:01:43.918Z,15.50
2018-02-04T21:04:12.818Z,16.05
2018-02-04T21:06:41.498Z,17.52
2018-02-04T21:09:09.957Z,15.95
2018-02-04T21:11:38.604Z,15.90
2018-02-04T21:14:07.870Z,16.00
2018-02-04T21:16:37.058Z,16.33
2018-02-04T21:19:05.594Z,16.70
2018-02-04T21:21:34.737Z,18.85
2018-02-04T21:24:04.295Z,16.67
2018-02-04T21:26:33.004Z,17.45
2018-02-04T21:29:01.915Z,16.90
2018-02-04T21:31:30.456Z,18.02
2018-02-04T21:33:58.842Z,18.58
2018-02-04T21:36:27.565Z,16.80
2018-02-04T21:38:55.934Z,15.82
2018-02-04T21:41:24.395Z,17.35
2018-02-04T21:43:53.073Z,19.23
2018-02-04T21:46:21.507Z,22.90
2018-02-04T21:48:51.632Z,22.17
2018-02-04T21:51:20.050Z,22.50
2018-02-04T21:53:49.503Z,22.25
2018-02-04T21:56:20.665Z,22.92
2018-02-04T21:58:49.680Z,22.80
2018-02-04T22:01:20.902Z,22.92
2018-02-04T22:03:51.184Z,23.73
2018-02-04T22:06:21.697Z,22.70
2018-02-04T22:08:52.567Z,22.73
2018-02-04T22:11:21.554Z,26.20
2018-02-04T22:13:50.218Z,26.98
2018-02-04T22:16:19.511Z,27.85
2018-02-04T22:18:48.323Z,26.20
2018-02-04T22:21:16.898Z,27.85
2018-02-04T22:23:45.521Z,29.87
2018-02-04T22:26:14.370Z,30.48
2018-02-04T22:28:43.170Z,30.50
2018-02-04T22:31:11.803Z,31.20
2018-02-04T22:33:41.440Z,28.50
2018-02-04T22:36:10.243Z,29.85
2018-02-04T22:38:38.891Z,32.50
2018-02-04T22:41:18.600Z,29.73
2018-02-04T22:43:48.923Z,30.88
2018-02-04T22:46:17.486Z,28.90
2018-02-04T22:48:47.046Z,30.60
2018-02-04T22:51:15.506Z,27.05
2018-02-04T22:53:43.990Z,27.70
2018-02-04T22:56:12.465Z,28.38
2018-02-04T22:58:40.867Z,27.90
2018-02-04T23:01:10.026Z,31.75
2018-02-04T23:03:38.393Z,26.62
2018-02-04T23:06:06.758Z,26.52
2018-02-04T23:08:35.151Z,26.73
2018-02-04T23:11:03.521Z,24.80
2018-02-04T23:13:31.919Z,25.05
2018-02-04T23:16:00.278Z,24.48
2018-02-04T23:18:28.846Z,25.95
2018-02-04T23:20:57.507Z,27.60
2018-02-04T23:23:26.817Z,25.73
2018-02-04T23:25:55.313Z,27.23
2018-02-04T23:28:23.782Z,27.20
2018-02-04T23:30:52.200Z,27.85
2018-02-04T23:33:20.579Z,26.37
2018-02-04T23:35:49.267Z,28.42
2018-02-04T23:38:17.934Z,29.70
2018-02-04T23:40:46.297Z,28.50
2018-02-04T23:43:14.684Z,28.65
2018-02-04T23:45:43.045Z,28.42
2018-02-04T23:48:11.499Z,31.10
2018-02-04T23:50:40.642Z,28.87
2018-02-04T23:53:09.057Z,30.00
2018-02-04T23:55:37.429Z,30.58
2018-02-04T23:58:05.787Z,28.20
